createdAt,value
2019-04-26T00:00:18.061Z,86.17
2019-04-26T00:01:14.376Z,86.19
2019-04-26T00:02:12.272Z,87.14
2019-04-26T00:03:10.270Z,88.03
2019-04-26T00:04:05.350Z,88.97
2019-04-26T00:05:02.375Z,88.97
2019-04-26T00:05:58.842Z,88.85
2019-04-26T00:06:56.349Z,89.03
2019-04-26T00:07:53.341Z,89.33
2019-04-26T00:08:50.374Z,89.51
2019-04-26T00:09:47.308Z,89.43
2019-04-26T00:10:44.302Z,89.69
2019-04-26T00:11:41.317Z,89.74
2019-04-26T00:12:37.797Z,89.72
2019-04-26T00:13:36.635Z,89.71
2019-04-26T00:14:32.279Z,90.00
2019-04-26T00:15:29.290Z,90.41
2019-04-26T00:16:26.263Z,90.89
2019-04-26T00:17:23.284Z,91.13
2019-04-26T00:18:20.901Z,91.56
2019-04-26T00:19:17.879Z,91.92
2019-04-26T00:20:14.888Z,92.68
2019-04-26T00:21:11.723Z,92.79
2019-04-26T00:22:08.212Z,93.25
2019-04-26T00:23:05.235Z,93.47
2019-04-26T00:24:02.203Z,93.51
2019-04-26T00:24:59.207Z,93.68
2019-04-26T00:25:56.194Z,94.13
2019-04-26T00:26:54.191Z,94.34
2019-04-26T00:27:50.194Z,94.49
2019-04-26T00:28:47.166Z,94.84
2019-04-26T00:29:45.177Z,95.39
2019-04-26T00:30:41.202Z,95.20
2019-04-26T00:31:38.159Z,95.47
2019-04-26T00:32:35.149Z,95.78
2019-04-26T00:33:32.140Z,95.50
2019-04-26T00:34:29.132Z,95.40
2019-04-26T00:35:26.165Z,95.67
2019-04-26T00:36:23.131Z,95.80
2019-04-26T00:37:20.250Z,95.84
2019-04-26T00:38:18.135Z,96.04
2019-04-26T00:39:14.334Z,96.00
2019-04-26T00:40:11.679Z,96.05
2019-04-26T00:41:08.081Z,96.01
2019-04-26T00:42:05.090Z,96.21
2019-04-26T00:43:02.063Z,96.23
2019-04-26T00:43:58.573Z,96.17
2019-04-26T00:44:56.062Z,96.07
2019-04-26T00:45:53.054Z,96.00
2019-04-26T00:46:50.043Z,95.79
2019-04-26T00:47:47.093Z,96.04
2019-04-26T00:48:44.034Z,96.18
2019-04-26T00:49:43.735Z,96.26
2019-04-26T00:50:38.015Z,96.21
2019-04-26T00:51:35.007Z,96.15
2019-04-26T00:52:32.045Z,96.07
2019-04-26T00:53:28.997Z,95.97
2019-04-26T00:54:25.987Z,96.40
2019-04-26T00:55:23.886Z,96.43
2019-04-26T00:56:20.184Z,95.85
2019-04-26T00:57:18.121Z,96.15
2019-04-26T00:58:14.921Z,96.24
2019-04-26T00:59:10.970Z,96.16
2019-04-26T01:00:07.957Z,96.02
2019-04-26T01:01:04.952Z,95.84
2019-04-26T01:02:01.930Z,95.66
2019-04-26T01:02:58.915Z,95.62
2019-04-26T01:03:55.920Z,95.44
2019-04-26T01:04:52.917Z,95.14
2019-04-26T01:05:59.528Z,95.36
2019-04-26T01:06:46.899Z,96.49
2019-04-26T01:07:43.899Z,95.69
2019-04-26T01:08:40.888Z,95.63
2019-04-26T01:09:37.898Z,95.93
2019-04-26T01:10:34.945Z,96.00
2019-04-26T01:11:31.865Z,95.72
2019-04-26T01:12:28.875Z,95.34
2019-04-26T01:13:26.164Z,94.39
2019-04-26T01:14:22.846Z,93.66
2019-04-26T01:15:21.470Z,93.06
2019-04-26T01:16:17.438Z,92.60
2019-04-26T01:17:13.828Z,92.08
2019-04-26T01:18:10.829Z,91.80
2019-04-26T01:19:07.811Z,91.29
2019-04-26T01:20:04.834Z,90.79
2019-04-26T01:21:01.801Z,90.24
2019-04-26T01:21:58.792Z,89.73
2019-04-26T01:22:55.781Z,89.32
2019-04-26T01:23:52.781Z,88.50
2019-04-26T01:24:49.277Z,87.99
2019-04-26T01:25:46.808Z,87.75
2019-04-26T01:26:43.760Z,87.24
2019-04-26T01:27:40.754Z,86.66
2019-04-26T01:28:37.765Z,86.31
2019-04-26T01:29:34.733Z,85.73
2019-04-26T01:30:31.722Z,85.29
2019-04-26T01:31:28.735Z,84.66
2019-04-26T01:32:26.135Z,84.30
2019-04-26T01:33:22.713Z,83.88
2019-04-26T01:34:20.341Z,83.29
2019-04-26T01:35:16.698Z,82.79
2019-04-26T01:36:13.792Z,82.63
2019-04-26T01:37:10.675Z,82.57
2019-04-26T01:38:07.685Z,82.68
2019-04-26T01:39:04.665Z,82.93
2019-04-26T01:40:01.977Z,83.20
2019-04-26T01:40:58.647Z,83.21
2019-04-26T01:41:55.650Z,83.45
2019-04-26T01:42:52.655Z,83.58
2019-04-26T01:43:49.649Z,83.71
2019-04-26T01:44:46.642Z,84.00
2019-04-26T01:45:43.615Z,83.85
2019-04-26T01:46:40.115Z,84.72
2019-04-26T01:47:37.611Z,84.99
2019-04-26T01:48:34.611Z,85.17
2019-04-26T01:49:32.499Z,85.85
2019-04-26T01:50:29.450Z,86.43
2019-04-26T01:51:26.591Z,86.93
2019-04-26T01:52:23.960Z,86.98
2019-04-26T01:53:21.050Z,86.94
2019-04-26T01:54:16.566Z,87.26
2019-04-26T01:55:13.556Z,87.43
2019-04-26T01:56:10.549Z,88.02
2019-04-26T01:57:07.545Z,88.66
2019-04-26T01:58:04.535Z,89.54
2019-04-26T01:59:01.529Z,89.66
2019-04-26T01:59:58.521Z,89.44
2019-04-26T02:00:55.803Z,89.55
2019-04-26T02:01:52.508Z,89.16
2019-04-26T02:02:49.546Z,88.66
2019-04-26T02:03:46.526Z,88.80
2019-04-26T02:04:43.481Z,88.62
2019-04-26T02:05:40.468Z,88.68
2019-04-26T02:06:37.479Z,88.88
2019-04-26T02:07:34.469Z,88.93
2019-04-26T02:08:32.442Z,88.12
2019-04-26T02:09:28.456Z,87.37
2019-04-26T02:10:26.572Z,86.93
2019-04-26T02:11:23.983Z,86.56
2019-04-26T02:12:19.420Z,85.75
2019-04-26T02:13:16.427Z,85.20
2019-04-26T02:14:13.419Z,84.90
2019-04-26T02:15:10.415Z,84.75
2019-04-26T02:16:07.411Z,84.65
2019-04-26T02:17:04.400Z,84.18
2019-04-26T02:18:00.903Z,83.59
2019-04-26T02:18:58.381Z,83.29
2019-04-26T02:19:55.382Z,83.04
2019-04-26T02:20:52.365Z,82.68
2019-04-26T02:21:48.863Z,81.75
2019-04-26T02:22:46.367Z,81.47
2019-04-26T02:23:43.360Z,80.97
2019-04-26T02:24:39.841Z,81.05
2019-04-26T02:25:37.328Z,80.92
2019-04-26T02:26:34.858Z,80.54
2019-04-26T02:27:32.391Z,79.90
2019-04-26T02:28:28.376Z,80.31
2019-04-26T02:29:26.606Z,79.70
2019-04-26T02:30:22.305Z,79.70
2019-04-26T02:31:19.326Z,79.66
2019-04-26T02:32:15.800Z,79.50
2019-04-26T02:33:13.269Z,79.01
2019-04-26T02:34:10.305Z,78.89
2019-04-26T02:35:07.264Z,78.65
2019-04-26T02:36:04.265Z,78.20
2019-04-26T02:37:01.256Z,78.28
2019-04-26T02:37:58.239Z,78.03
2019-04-26T02:38:54.766Z,77.78
2019-04-26T02:39:52.232Z,77.35
2019-04-26T02:40:49.222Z,77.72
2019-04-26T02:41:46.240Z,77.20
2019-04-26T02:42:43.225Z,77.13
2019-04-26T02:43:41.206Z,77.24
2019-04-26T02:44:38.413Z,77.44
2019-04-26T02:45:36.390Z,77.43
2019-04-26T02:46:32.499Z,77.17
2019-04-26T02:47:28.951Z,77.21
2019-04-26T02:48:25.177Z,77.35
2019-04-26T02:49:22.178Z,77.51
2019-04-26T02:50:19.161Z,77.87
2019-04-26T02:51:16.145Z,78.27
2019-04-26T02:52:13.156Z,78.54
2019-04-26T02:53:10.135Z,79.06
2019-04-26T02:54:07.147Z,79.85
2019-04-26T02:55:04.141Z,80.54
2019-04-26T02:56:01.119Z,81.01
2019-04-26T02:56:58.116Z,81.28
2019-04-26T02:57:55.094Z,81.72
2019-04-26T02:58:52.105Z,81.53
2019-04-26T02:59:49.092Z,81.50
2019-04-26T03:00:46.086Z,81.67
2019-04-26T03:01:43.070Z,81.67
2019-04-26T03:02:40.551Z,81.47
2019-04-26T03:03:38.300Z,81.25
2019-04-26T03:04:35.615Z,81.37
2019-04-26T03:05:32.280Z,81.62
2019-04-26T03:06:30.030Z,81.82
2019-04-26T03:07:25.036Z,81.49
2019-04-26T03:08:22.020Z,81.30
2019-04-26T03:09:19.019Z,80.68
2019-04-26T03:10:16.020Z,80.23
2019-04-26T03:11:17.067Z,79.98
2019-04-26T03:12:10.005Z,79.84
2019-04-26T03:13:07.002Z,79.78
2019-04-26T03:14:03.991Z,79.69
2019-04-26T03:15:13.154Z,79.08
2019-04-26T03:15:57.477Z,78.94
2019-04-26T03:16:54.973Z,78.59
2019-04-26T03:17:51.967Z,78.37
2019-04-26T03:18:48.995Z,78.45
2019-04-26T03:19:45.937Z,78.60
2019-04-26T03:20:42.952Z,78.82
2019-04-26T03:21:39.933Z,78.84
2019-04-26T03:22:38.597Z,78.99
2019-04-26T03:23:45.659Z,78.29
2019-04-26T03:24:32.505Z,77.48
2019-04-26T03:25:27.912Z,76.60
2019-04-26T03:26:24.891Z,76.80
2019-04-26T03:27:21.893Z,76.69
2019-04-26T03:28:18.893Z,76.37
2019-04-26T03:29:15.888Z,76.25
2019-04-26T03:30:22.744Z,76.01
2019-04-26T03:31:09.956Z,75.47
2019-04-26T03:32:06.927Z,75.63
2019-04-26T03:33:03.910Z,75.63
2019-04-26T03:34:00.964Z,75.86
2019-04-26T03:34:57.939Z,75.91
2019-04-26T03:35:57.543Z,76.09
2019-04-26T03:36:51.813Z,76.37
2019-04-26T03:37:48.823Z,76.48
2019-04-26T03:38:45.819Z,76.56
2019-04-26T03:39:44.428Z,76.52
2019-04-26T03:40:40.975Z,76.36
2019-04-26T03:41:38.575Z,75.84
2019-04-26T03:42:35.177Z,75.76
2019-04-26T03:43:30.764Z,75.81
2019-04-26T03:44:27.767Z,76.12
2019-04-26T03:45:24.771Z,75.79
2019-04-26T03:46:21.744Z,75.55
2019-04-26T03:47:18.748Z,75.39
2019-04-26T03:48:15.729Z,75.54
2019-04-26T03:49:12.735Z,75.71
2019-04-26T03:50:09.762Z,75.62
2019-04-26T03:51:06.719Z,75.85
2019-04-26T03:52:03.705Z,75.37
2019-04-26T03:53:00.732Z,75.42
2019-04-26T03:53:57.701Z,76.15
2019-04-26T03:54:54.702Z,76.40
2019-04-26T03:55:51.688Z,76.87
2019-04-26T03:56:48.673Z,76.96
2019-04-26T03:57:46.163Z,76.74
2019-04-26T03:58:43.621Z,77.08
2019-04-26T03:59:40.883Z,77.26
2019-04-26T04:00:38.736Z,77.07
2019-04-26T04:01:35.393Z,77.25
2019-04-26T04:02:30.638Z,77.43
2019-04-26T04:03:27.634Z,77.48
2019-04-26T04:04:24.621Z,77.67
2019-04-26T04:05:21.617Z,78.03
2019-04-26T04:06:18.617Z,78.03
2019-04-26T04:07:15.625Z,78.07
2019-04-26T04:08:12.617Z,77.94
2019-04-26T04:09:09.598Z,77.92
2019-04-26T04:10:06.585Z,77.64
2019-04-26T04:11:03.586Z,77.72
2019-04-26T04:12:10.719Z,77.82
2019-04-26T04:12:57.578Z,77.93
2019-04-26T04:13:54.622Z,77.96
2019-04-26T04:14:51.546Z,77.47
2019-04-26T04:15:48.631Z,77.17
2019-04-26T04:16:47.358Z,77.71
2019-04-26T04:17:45.402Z,77.40
2019-04-26T04:18:40.468Z,77.83
2019-04-26T04:19:38.391Z,77.47
2019-04-26T04:20:33.522Z,77.37
2019-04-26T04:21:30.497Z,77.26
2019-04-26T04:22:27.495Z,77.22
2019-04-26T04:23:24.492Z,77.75
2019-04-26T04:24:21.480Z,77.56
2019-04-26T04:25:18.481Z,78.02
2019-04-26T04:26:15.468Z,78.26
2019-04-26T04:27:12.463Z,78.42
2019-04-26T04:28:09.448Z,78.46
2019-04-26T04:29:05.944Z,78.48
2019-04-26T04:30:03.449Z,78.08
2019-04-26T04:31:00.442Z,77.94
2019-04-26T04:31:57.423Z,77.89
2019-04-26T04:32:54.444Z,77.92
2019-04-26T04:33:52.643Z,77.82
2019-04-26T04:34:49.662Z,77.69
2019-04-26T04:35:46.087Z,77.65
2019-04-26T04:36:44.529Z,77.78
2019-04-26T04:37:54.548Z,77.37
2019-04-26T04:38:36.379Z,77.85
2019-04-26T04:39:33.373Z,77.39
2019-04-26T04:40:30.385Z,77.45
2019-04-26T04:41:27.353Z,77.49
2019-04-26T04:42:24.368Z,77.31
2019-04-26T04:43:21.386Z,77.80
2019-04-26T04:44:18.378Z,77.28
2019-04-26T04:45:15.323Z,76.78
2019-04-26T04:46:12.485Z,77.51
2019-04-26T04:47:23.537Z,77.75
2019-04-26T04:48:06.305Z,77.96
2019-04-26T04:49:03.398Z,77.77
2019-04-26T04:50:00.284Z,77.88
2019-04-26T04:50:57.298Z,78.08
2019-04-26T04:51:54.290Z,78.27
2019-04-26T04:52:52.186Z,78.04
2019-04-26T04:53:49.669Z,78.15
2019-04-26T04:55:00.801Z,77.80
2019-04-26T04:55:43.474Z,79.12
2019-04-26T04:56:39.246Z,79.16
2019-04-26T04:57:36.264Z,79.67
2019-04-26T04:58:33.228Z,79.93
2019-04-26T04:59:30.273Z,80.23
2019-04-26T05:00:27.216Z,80.14
2019-04-26T05:01:24.198Z,80.01
2019-04-26T05:02:21.198Z,80.62
2019-04-26T05:03:18.204Z,80.66
2019-04-26T05:04:15.204Z,81.39
2019-04-26T05:05:12.180Z,81.85
2019-04-26T05:06:09.176Z,81.70
2019-04-26T05:07:06.173Z,81.79
2019-04-26T05:08:06.730Z,82.36
2019-04-26T05:09:00.146Z,82.04
2019-04-26T05:09:56.647Z,82.34
2019-04-26T05:10:54.155Z,82.49
2019-04-26T05:11:51.994Z,82.15
2019-04-26T05:12:49.996Z,82.37
2019-04-26T05:13:46.277Z,82.69
2019-04-26T05:14:42.114Z,82.49
2019-04-26T05:15:39.107Z,82.23
2019-04-26T05:16:36.259Z,82.95
2019-04-26T05:17:33.102Z,82.53
2019-04-26T05:18:30.084Z,83.59
2019-04-26T05:19:27.104Z,82.68
2019-04-26T05:20:24.070Z,83.47
2019-04-26T05:21:21.063Z,83.33
2019-04-26T05:22:18.060Z,83.44
2019-04-26T05:23:15.052Z,83.61
2019-04-26T05:24:12.057Z,83.54
2019-04-26T05:25:09.036Z,84.19
2019-04-26T05:26:06.031Z,83.95
2019-04-26T05:27:03.040Z,83.98
2019-04-26T05:28:00.026Z,83.51
2019-04-26T05:28:57.010Z,83.27
2019-04-26T05:29:54.147Z,83.47
2019-04-26T05:30:50.504Z,83.65
2019-04-26T05:31:49.616Z,83.65
2019-04-26T05:32:44.991Z,83.81
2019-04-26T05:33:41.965Z,83.77
2019-04-26T05:34:38.965Z,83.42
2019-04-26T05:35:35.521Z,83.65
2019-04-26T05:36:32.956Z,83.29
2019-04-26T05:37:29.951Z,84.14
2019-04-26T05:38:26.940Z,84.39
2019-04-26T05:39:23.939Z,84.19
2019-04-26T05:40:21.923Z,83.92
2019-04-26T05:41:17.921Z,83.87
2019-04-26T05:42:14.925Z,82.94
2019-04-26T05:43:11.908Z,82.71
2019-04-26T05:44:08.894Z,82.01
2019-04-26T05:45:05.892Z,81.97
2019-04-26T05:46:02.874Z,82.47
2019-04-26T05:47:00.981Z,82.13
2019-04-26T05:48:08.409Z,81.43
2019-04-26T05:48:53.862Z,82.08
2019-04-26T05:49:51.784Z,82.84
2019-04-26T05:50:47.850Z,81.72
2019-04-26T05:51:44.842Z,82.90
2019-04-26T05:52:41.838Z,83.15
2019-04-26T05:53:38.819Z,82.70
2019-04-26T05:54:35.829Z,82.80
2019-04-26T05:55:32.804Z,83.14
2019-04-26T05:56:29.806Z,83.15
2019-04-26T05:57:26.805Z,82.12
2019-04-26T05:58:23.794Z,82.76
2019-04-26T05:59:20.776Z,82.22
2019-04-26T06:00:17.785Z,82.91
2019-04-26T06:01:14.785Z,82.91
2019-04-26T06:02:11.771Z,83.29
2019-04-26T06:03:08.760Z,83.40
2019-04-26T06:04:05.758Z,81.74
2019-04-26T06:05:02.746Z,81.19
2019-04-26T06:05:59.729Z,81.25
2019-04-26T06:06:57.261Z,81.63
2019-04-26T06:07:54.226Z,81.45
2019-04-26T06:08:51.175Z,81.79
2019-04-26T06:09:47.715Z,80.62
2019-04-26T06:10:44.707Z,81.67
2019-04-26T06:11:41.694Z,82.19
2019-04-26T06:12:38.684Z,82.18
2019-04-26T06:13:35.674Z,81.93
2019-04-26T06:14:32.662Z,81.70
2019-04-26T06:15:29.655Z,82.45
2019-04-26T06:16:26.665Z,82.14
2019-04-26T06:17:23.666Z,82.56
2019-04-26T06:18:20.646Z,83.83
2019-04-26T06:19:17.628Z,82.48
2019-04-26T06:20:22.797Z,82.96
2019-04-26T06:21:11.134Z,82.96
2019-04-26T06:22:08.619Z,82.57
2019-04-26T06:23:06.611Z,83.54
2019-04-26T06:24:02.606Z,83.95
2019-04-26T06:25:00.469Z,84.62
2019-04-26T06:25:58.337Z,84.60
2019-04-26T06:26:54.316Z,85.25
2019-04-26T06:27:50.581Z,85.05
2019-04-26T06:28:48.576Z,85.27
2019-04-26T06:29:44.571Z,85.39
2019-04-26T06:30:45.597Z,85.78
2019-04-26T06:31:38.055Z,86.02
2019-04-26T06:32:35.626Z,86.32
2019-04-26T06:33:32.545Z,87.06
2019-04-26T06:34:29.530Z,86.22
2019-04-26T06:35:26.521Z,86.43
2019-04-26T06:36:23.020Z,86.76
2019-04-26T06:37:20.508Z,87.50
2019-04-26T06:38:17.517Z,87.86
2019-04-26T06:39:13.991Z,87.41
2019-04-26T06:40:11.485Z,87.71
2019-04-26T06:41:08.479Z,88.20
2019-04-26T06:42:05.464Z,87.51
2019-04-26T06:43:02.783Z,86.90
2019-04-26T06:44:00.375Z,87.05
2019-04-26T06:44:56.460Z,86.64
2019-04-26T06:45:54.127Z,86.78
2019-04-26T06:46:50.443Z,86.88
2019-04-26T06:47:47.511Z,86.53
2019-04-26T06:48:44.433Z,86.05
2019-04-26T06:49:41.409Z,85.83
2019-04-26T06:50:38.398Z,86.16
2019-04-26T06:51:36.402Z,85.92
2019-04-26T06:52:32.395Z,86.12
2019-04-26T06:53:29.394Z,86.25
2019-04-26T06:54:26.388Z,86.29
2019-04-26T06:55:23.374Z,85.67
2019-04-26T06:56:20.363Z,85.94
2019-04-26T06:57:17.363Z,86.34
2019-04-26T06:58:14.377Z,87.20
2019-04-26T06:59:11.341Z,87.46
2019-04-26T07:00:09.328Z,87.89
2019-04-26T07:01:05.417Z,88.24
2019-04-26T07:02:02.943Z,88.70
2019-04-26T07:02:59.313Z,89.15
2019-04-26T07:03:58.175Z,88.46
2019-04-26T07:04:53.306Z,88.09
2019-04-26T07:05:50.293Z,88.65
2019-04-26T07:06:47.295Z,88.90
2019-04-26T07:07:44.282Z,89.49
2019-04-26T07:08:41.292Z,89.96
2019-04-26T07:09:38.267Z,90.41
2019-04-26T07:10:35.254Z,90.17
2019-04-26T07:11:32.247Z,90.33
2019-04-26T07:12:29.237Z,90.77
2019-04-26T07:13:25.745Z,90.79
2019-04-26T07:14:23.239Z,91.63
2019-04-26T07:15:28.320Z,91.86
2019-04-26T07:16:22.813Z,92.27
2019-04-26T07:17:14.213Z,92.85
2019-04-26T07:18:11.209Z,92.90
2019-04-26T07:19:08.300Z,92.85
2019-04-26T07:20:06.058Z,92.63
2019-04-26T07:21:02.191Z,91.84
2019-04-26T07:22:00.588Z,91.73
2019-04-26T07:22:56.164Z,92.70
2019-04-26T07:23:53.184Z,93.40
2019-04-26T07:24:50.155Z,93.91
2019-04-26T07:25:47.154Z,94.37
2019-04-26T07:26:44.162Z,93.17
2019-04-26T07:27:41.131Z,92.66
2019-04-26T07:28:38.133Z,92.75
2019-04-26T07:29:35.114Z,93.76
2019-04-26T07:30:32.168Z,94.44
2019-04-26T07:31:29.109Z,95.11
2019-04-26T07:32:26.107Z,95.91
2019-04-26T07:33:23.106Z,96.47
2019-04-26T07:34:20.078Z,97.64
2019-04-26T07:35:17.079Z,98.18
2019-04-26T07:36:14.087Z,99.43
2019-04-26T07:37:11.383Z,100.00
2019-04-26T07:38:08.991Z,100.00
2019-04-26T07:39:17.713Z,100.00
2019-04-26T07:40:02.965Z,100.00
2019-04-26T07:40:59.044Z,100.00
2019-04-26T07:41:56.055Z,100.00
2019-04-26T07:42:53.025Z,100.00
2019-04-26T07:43:50.024Z,100.00
2019-04-26T07:44:47.005Z,100.00
2019-04-26T07:45:44.008Z,100.00
2019-04-26T07:46:40.987Z,100.00
2019-04-26T07:47:37.995Z,100.00
2019-04-26T07:48:34.989Z,100.00
2019-04-26T07:49:31.983Z,100.00
2019-04-26T07:50:28.969Z,100.00
2019-04-26T07:51:25.952Z,100.00
2019-04-26T07:52:22.658Z,100.00
2019-04-26T07:53:19.945Z,100.00
2019-04-26T07:54:16.934Z,100.00
2019-04-26T07:55:13.944Z,100.00
2019-04-26T07:56:11.373Z,100.00
2019-04-26T07:57:08.712Z,100.00
2019-04-26T07:58:05.199Z,100.00
2019-04-26T07:59:04.205Z,100.00
2019-04-26T07:59:58.897Z,100.00
2019-04-26T08:00:55.914Z,100.00
2019-04-26T08:01:52.882Z,100.00
2019-04-26T08:02:49.909Z,100.00
2019-04-26T08:03:46.374Z,100.00
2019-04-26T08:04:43.862Z,100.00
2019-04-26T08:05:40.861Z,100.00
2019-04-26T08:06:37.854Z,100.00
2019-04-26T08:07:34.850Z,100.00
2019-04-26T08:08:31.853Z,100.00
2019-04-26T08:09:28.836Z,100.00
2019-04-26T08:10:25.836Z,100.00
2019-04-26T08:11:22.809Z,100.00
2019-04-26T08:12:19.831Z,100.00
2019-04-26T08:13:16.796Z,100.00
2019-04-26T08:14:14.725Z,100.00
2019-04-26T08:15:11.390Z,100.00
2019-04-26T08:16:08.657Z,100.00
2019-04-26T08:17:05.281Z,100.00
2019-04-26T08:18:01.774Z,100.00
2019-04-26T08:18:59.750Z,100.00
2019-04-26T08:19:57.592Z,100.00
2019-04-26T08:20:52.758Z,100.00
2019-04-26T08:21:49.733Z,100.00
2019-04-26T08:22:46.737Z,100.00
2019-04-26T08:23:43.739Z,100.00
2019-04-26T08:24:40.226Z,100.00
2019-04-26T08:25:37.253Z,100.00
2019-04-26T08:26:34.206Z,100.00
2019-04-26T08:27:31.704Z,100.00
2019-04-26T08:28:28.689Z,100.00
2019-04-26T08:29:25.690Z,100.00
2019-04-26T08:30:22.897Z,100.00
2019-04-26T08:31:20.035Z,100.00
2019-04-26T08:32:16.178Z,100.00
2019-04-26T08:33:14.709Z,100.00
2019-04-26T08:34:10.176Z,100.00
2019-04-26T08:35:15.145Z,100.00
2019-04-26T08:36:04.634Z,100.00
2019-04-26T08:37:03.095Z,100.00
2019-04-26T08:37:58.129Z,100.00
2019-04-26T08:38:56.618Z,100.00
2019-04-26T08:39:52.611Z,100.00
2019-04-26T08:40:49.110Z,100.00
2019-04-26T08:41:46.604Z,100.00
2019-04-26T08:42:43.099Z,100.00
2019-04-26T08:43:40.098Z,100.00
2019-04-26T08:44:37.576Z,100.00
2019-04-26T08:45:34.088Z,100.00
2019-04-26T08:46:35.807Z,100.00
2019-04-26T08:47:28.556Z,100.00
2019-04-26T08:48:27.728Z,100.00
2019-04-26T08:49:22.542Z,100.00
2019-04-26T08:50:19.530Z,100.00
2019-04-26T08:51:20.750Z,100.00
2019-04-26T08:52:14.929Z,100.00
2019-04-26T08:53:10.519Z,100.00
2019-04-26T08:54:07.511Z,100.00
2019-04-26T08:55:04.500Z,100.00
2019-04-26T08:56:01.505Z,100.00
2019-04-26T08:56:58.483Z,100.00
2019-04-26T08:57:55.470Z,100.00
2019-04-26T08:58:52.464Z,100.00
2019-04-26T08:59:49.465Z,100.00
2019-04-26T09:00:46.462Z,100.00
2019-04-26T09:01:45.480Z,100.00
2019-04-26T09:02:40.446Z,100.00
2019-04-26T09:03:37.443Z,100.00
2019-04-26T09:04:34.432Z,100.00
2019-04-26T09:05:31.413Z,100.00
2019-04-26T09:06:27.922Z,100.00
2019-04-26T09:07:25.424Z,100.00
2019-04-26T09:08:22.922Z,100.00
2019-04-26T09:09:19.840Z,100.00
2019-04-26T09:10:15.894Z,100.00
2019-04-26T09:11:23.671Z,100.00
2019-04-26T09:12:09.950Z,100.00
2019-04-26T09:13:07.368Z,100.00
2019-04-26T09:14:03.866Z,100.00
2019-04-26T09:15:01.356Z,100.00
2019-04-26T09:15:57.917Z,100.00
2019-04-26T09:16:54.851Z,100.00
2019-04-26T09:17:51.836Z,100.00
2019-04-26T09:18:54.353Z,100.00
2019-04-26T09:19:46.380Z,100.00
2019-04-26T09:20:44.323Z,100.00
2019-04-26T09:21:40.310Z,100.00
2019-04-26T09:22:37.293Z,100.00
2019-04-26T09:23:40.400Z,100.00
2019-04-26T09:24:31.302Z,100.00
2019-04-26T09:25:30.312Z,100.00
2019-04-26T09:26:25.344Z,100.00
2019-04-26T09:27:22.544Z,100.00
2019-04-26T09:28:19.289Z,100.00
2019-04-26T09:29:15.750Z,100.00
2019-04-26T09:30:13.243Z,100.00
2019-04-26T09:31:10.235Z,100.00
2019-04-26T09:32:07.236Z,100.00
2019-04-26T09:33:04.265Z,100.00
2019-04-26T09:34:01.210Z,100.00
2019-04-26T09:34:58.196Z,100.00
2019-04-26T09:35:55.208Z,100.00
2019-04-26T09:36:52.205Z,100.00
2019-04-26T09:37:49.189Z,100.00
2019-04-26T09:38:46.186Z,100.00
2019-04-26T09:39:43.472Z,100.00
2019-04-26T09:40:40.166Z,100.00
2019-04-26T09:41:36.674Z,100.00
2019-04-26T09:42:33.655Z,100.00
2019-04-26T09:43:30.655Z,100.00
2019-04-26T09:44:27.639Z,100.00
2019-04-26T09:45:25.139Z,100.00
2019-04-26T09:46:22.123Z,100.00
2019-04-26T09:47:19.110Z,100.00
2019-04-26T09:48:16.112Z,100.00
2019-04-26T09:49:12.614Z,100.00
2019-04-26T09:50:14.934Z,100.00
2019-04-26T09:51:07.091Z,100.00
2019-04-26T09:52:04.093Z,100.00
2019-04-26T09:53:00.582Z,100.00
2019-04-26T09:53:57.569Z,100.00
2019-04-26T09:54:55.059Z,100.00
2019-04-26T09:55:52.054Z,100.00
2019-04-26T09:56:49.342Z,100.00
2019-04-26T09:57:45.539Z,100.00
2019-04-26T09:58:42.527Z,100.00
2019-04-26T09:59:41.157Z,100.00
2019-04-26T10:00:36.516Z,100.00
2019-04-26T10:01:33.522Z,100.00
2019-04-26T10:02:33.884Z,100.00
2019-04-26T10:03:27.522Z,100.00
2019-04-26T10:04:24.494Z,100.00
2019-04-26T10:05:23.603Z,100.00
2019-04-26T10:06:18.491Z,100.00
2019-04-26T10:07:15.975Z,100.00
2019-04-26T10:08:14.569Z,100.00
2019-04-26T10:09:09.948Z,100.00
2019-04-26T10:10:06.453Z,100.00
2019-04-26T10:11:05.816Z,100.00
2019-04-26T10:12:00.954Z,100.00
2019-04-26T10:12:57.427Z,100.00
2019-04-26T10:13:54.420Z,100.00
2019-04-26T10:14:51.913Z,100.00
2019-04-26T10:15:48.408Z,100.00
2019-04-26T10:16:45.406Z,100.00
2019-04-26T10:17:46.397Z,100.00
2019-04-26T10:18:39.876Z,100.00
2019-04-26T10:19:36.867Z,100.00
2019-04-26T10:20:33.373Z,100.00
2019-04-26T10:21:30.363Z,100.00
2019-04-26T10:22:27.364Z,100.00
2019-04-26T10:23:24.365Z,100.00
2019-04-26T10:24:21.353Z,100.00
2019-04-26T10:25:18.336Z,100.00
2019-04-26T10:26:15.337Z,100.00
2019-04-26T10:27:12.321Z,100.00
2019-04-26T10:28:11.849Z,100.00
2019-04-26T10:29:06.306Z,100.00
2019-04-26T10:30:09.002Z,100.00
2019-04-26T10:31:00.291Z,100.00
2019-04-26T10:31:57.286Z,100.00
2019-04-26T10:32:58.242Z,100.00
2019-04-26T10:33:51.770Z,100.00
2019-04-26T10:34:49.763Z,100.00
2019-04-26T10:35:45.758Z,100.00
2019-04-26T10:36:42.262Z,100.00
2019-04-26T10:37:40.120Z,100.00
2019-04-26T10:38:36.745Z,100.00
2019-04-26T10:39:36.748Z,100.00
2019-04-26T10:40:35.762Z,100.00
2019-04-26T10:41:27.705Z,100.00
2019-04-26T10:42:24.711Z,100.00
2019-04-26T10:43:22.716Z,100.00
2019-04-26T10:44:18.698Z,100.00
2019-04-26T10:45:16.350Z,100.00
2019-04-26T10:46:12.674Z,100.00
2019-04-26T10:47:09.665Z,100.00
2019-04-26T10:48:09.682Z,100.00
2019-04-26T10:49:09.713Z,100.00
2019-04-26T10:50:01.643Z,100.00
2019-04-26T10:50:57.141Z,100.00
2019-04-26T10:51:54.654Z,100.00
2019-04-26T10:52:54.230Z,100.00
2019-04-26T10:53:50.382Z,100.00
2019-04-26T10:54:46.125Z,100.00
2019-04-26T10:55:42.601Z,100.00
2019-04-26T10:56:39.105Z,100.00
2019-04-26T10:57:36.098Z,100.00
2019-04-26T10:58:36.211Z,100.00
2019-04-26T10:59:31.886Z,100.00
2019-04-26T11:00:27.580Z,100.00
2019-04-26T11:01:24.556Z,100.00
2019-04-26T11:02:21.550Z,100.00
2019-04-26T11:03:18.550Z,100.00
2019-04-26T11:04:15.052Z,100.00
2019-04-26T11:05:18.119Z,100.00
2019-04-26T11:06:09.521Z,100.00
2019-04-26T11:07:06.529Z,100.00
2019-04-26T11:08:03.517Z,100.00
2019-04-26T11:09:00.521Z,100.00
2019-04-26T11:09:57.518Z,100.00
2019-04-26T11:10:54.497Z,100.00
2019-04-26T11:11:52.530Z,100.00
2019-04-26T11:12:48.498Z,100.00
2019-04-26T11:13:45.488Z,100.00
2019-04-26T11:14:42.471Z,100.00
2019-04-26T11:15:39.463Z,100.00
2019-04-26T11:16:37.178Z,100.00
2019-04-26T11:17:33.450Z,100.00
2019-04-26T11:18:30.451Z,100.00
2019-04-26T11:19:27.425Z,100.00
2019-04-26T11:20:24.429Z,100.00
2019-04-26T11:21:22.396Z,100.00
2019-04-26T11:22:28.569Z,100.00
2019-04-26T11:23:15.403Z,100.00
2019-04-26T11:24:15.271Z,100.00
2019-04-26T11:25:09.401Z,100.00
2019-04-26T11:26:06.401Z,100.00
2019-04-26T11:27:05.317Z,100.00
2019-04-26T11:28:00.373Z,100.00
2019-04-26T11:28:57.380Z,100.00
2019-04-26T11:29:54.274Z,100.00
2019-04-26T11:30:52.148Z,100.00
2019-04-26T11:31:49.345Z,100.00
2019-04-26T11:32:45.812Z,100.00
2019-04-26T11:33:44.912Z,100.00
2019-04-26T11:34:39.443Z,100.00
2019-04-26T11:35:36.532Z,100.00
2019-04-26T11:36:33.308Z,100.00
2019-04-26T11:37:30.699Z,100.00
2019-04-26T11:39:24.300Z,100.00
2019-04-26T11:40:14.006Z,100.00
2019-04-26T11:40:21.281Z,100.00
2019-04-26T11:41:18.276Z,100.00
2019-04-26T11:42:15.357Z,100.00
2019-04-26T11:43:12.253Z,100.00
2019-04-26T11:44:09.249Z,100.00
2019-04-26T11:45:10.462Z,100.00
2019-04-26T11:46:04.614Z,100.00
2019-04-26T11:47:03.261Z,100.00
2019-04-26T11:47:57.219Z,100.00
2019-04-26T11:48:59.254Z,100.00
2019-04-26T11:49:50.741Z,100.00
2019-04-26T11:50:51.828Z,100.00
2019-04-26T11:51:44.704Z,100.00
2019-04-26T11:52:41.699Z,100.00
2019-04-26T11:53:40.651Z,100.00
2019-04-26T11:54:36.178Z,100.00
2019-04-26T11:55:33.199Z,100.00
2019-04-26T11:56:30.165Z,100.00
2019-04-26T11:57:26.657Z,100.00
2019-04-26T11:58:24.139Z,100.00
2019-04-26T11:59:21.138Z,100.00
2019-04-26T12:00:19.727Z,100.00
2019-04-26T12:01:14.624Z,100.00
2019-04-26T12:02:16.138Z,100.00
2019-04-26T12:03:09.169Z,100.00
2019-04-26T12:04:07.299Z,100.00
2019-04-26T12:05:03.537Z,100.00